sensor_id;sensor_type;location;lat;lon;timestamp;P1;durP1;ratioP1;P2;durP2;ratioP2
8626;SDS011;4351;51.422;6.794;2023-04-01T00:02:05;4.90;;;1.17;;
8626;SDS011;4351;51.422;6.794;2023-04-01T00:04:33;5.43;;;1.00;;
8626;SDS011;4351;51.422;6.794;2023-04-01T00:07:01;2.77;;;0.90;;
8626;SDS011;4351;51.422;6.794;2023-04-01T00:09:29;4.43;;;1.20;;
8626;SDS011;4351;51.422;6.794;2023-04-01T00:11:57;4.23;;;1.40;;
8626;SDS011;4351;51.422;6.794;2023-04-01T00:14:25;4.83;;;1.00;;
8626;SDS011;4351;51.422;6.794;2023-04-01T00:16:54;14.07;;;2.30;;
8626;SDS011;4351;51.422;6.794;2023-04-01T00:19:23;3.80;;;0.97;;
8626;SDS011;4351;51.422;6.794;2023-04-01T00:21:51;4.00;;;1.33;;
8626;SDS011;4351;51.422;6.794;2023-04-01T00:24:19;2.83;;;1.03;;
8626;SDS011;4351;51.422;6.794;2023-04-01T00:26:47;3.33;;;0.90;;
8626;SDS011;4351;51.422;6.794;2023-04-01T00:29:15;3.23;;;0.80;;
8626;SDS011;4351;51.422;6.794;2023-04-01T00:31:43;5.33;;;0.80;;
8626;SDS011;4351;51.422;6.794;2023-04-01T00:34:13;5.47;;;0.90;;
8626;SDS011;4351;51.422;6.794;2023-04-01T00:36:40;4.43;;;1.03;;
8626;SDS011;4351;51.422;6.794;2023-04-01T00:39:08;2.00;;;0.80;;
8626;SDS011;4351;51.422;6.794;2023-04-01T00:41:36;2.17;;;0.70;;
8626;SDS011;4351;51.422;6.794;2023-04-01T00:44:15;2.30;;;0.67;;
8626;SDS011;4351;51.422;6.794;2023-04-01T00:46:45;1.70;;;0.90;;
8626;SDS011;4351;51.422;6.794;2023-04-01T00:49:15;1.60;;;0.50;;
8626;SDS011;4351;51.422;6.794;2023-04-01T00:51:46;3.50;;;0.90;;
8626;SDS011;4351;51.422;6.794;2023-04-01T00:54:17;1.83;;;0.73;;
8626;SDS011;4351;51.422;6.794;2023-04-01T00:56:48;4.97;;;1.03;;
8626;SDS011;4351;51.422;6.794;2023-04-01T00:59:23;3.13;;;0.80;;
8626;SDS011;4351;51.422;6.794;2023-04-01T01:01:53;1.87;;;0.70;;
8626;SDS011;4351;51.422;6.794;2023-04-01T01:04:24;3.40;;;0.80;;
8626;SDS011;4351;51.422;6.794;2023-04-01T01:06:56;2.83;;;0.90;;
8626;SDS011;4351;51.422;6.794;2023-04-01T01:09:38;2.70;;;0.77;;
8626;SDS011;4351;51.422;6.794;2023-04-01T01:12:13;3.80;;;0.90;;
8626;SDS011;4351;51.422;6.794;2023-04-01T01:14:45;2.50;;;0.70;;
8626;SDS011;4351;51.422;6.794;2023-04-01T01:17:22;2.93;;;0.80;;
8626;SDS011;4351;51.422;6.794;2023-04-01T01:20:18;1.83;;;0.70;;
8626;SDS011;4351;51.422;6.794;2023-04-01T01:23:23;1.67;;;0.80;;
8626;SDS011;4351;51.422;6.794;2023-04-01T01:26:18;2.87;;;0.77;;
8626;SDS011;4351;51.422;6.794;2023-04-01T01:29:00;4.77;;;0.73;;
8626;SDS011;4351;51.422;6.794;2023-04-01T01:31:36;1.57;;;0.60;;
8626;SDS011;4351;51.422;6.794;2023-04-01T01:34:13;4.03;;;1.10;;
8626;SDS011;4351;51.422;6.794;2023-04-01T01:36:47;2.63;;;0.90;;
8626;SDS011;4351;51.422;6.794;2023-04-01T01:39:20;2.47;;;0.70;;
8626;SDS011;4351;51.422;6.794;2023-04-01T01:41:54;3.23;;;0.70;;
8626;SDS011;4351;51.422;6.794;2023-04-01T01:44:24;2.43;;;0.83;;
8626;SDS011;4351;51.422;6.794;2023-04-01T01:46:55;3.87;;;0.60;;
8626;SDS011;4351;51.422;6.794;2023-04-01T01:49:24;2.97;;;0.83;;
8626;SDS011;4351;51.422;6.794;2023-04-01T01:51:54;1.97;;;0.67;;
8626;SDS011;4351;51.422;6.794;2023-04-01T01:54:22;1.67;;;0.70;;
8626;SDS011;4351;51.422;6.794;2023-04-01T01:56:52;1.90;;;0.60;;
8626;SDS011;4351;51.422;6.794;2023-04-01T01:59:29;3.13;;;0.80;;
8626;SDS011;4351;51.422;6.794;2023-04-01T02:01:59;1.40;;;0.77;;
8626;SDS011;4351;51.422;6.794;2023-04-01T02:04:34;2.90;;;1.10;;
8626;SDS011;4351;51.422;6.794;2023-04-01T02:07:04;2.93;;;0.93;;
8626;SDS011;4351;51.422;6.794;2023-04-01T02:09:37;1.60;;;0.80;;
8626;SDS011;4351;51.422;6.794;2023-04-01T02:12:06;2.40;;;0.70;;
8626;SDS011;4351;51.422;6.794;2023-04-01T02:14:40;1.77;;;0.83;;
8626;SDS011;4351;51.422;6.794;2023-04-01T02:17:12;2.47;;;0.80;;
8626;SDS011;4351;51.422;6.794;2023-04-01T02:19:46;1.80;;;0.70;;
8626;SDS011;4351;51.422;6.794;2023-04-01T02:22:20;1.90;;;0.70;;
8626;SDS011;4351;51.422;6.794;2023-04-01T02:24:52;2.77;;;0.90;;
8626;SDS011;4351;51.422;6.794;2023-04-01T02:27:22;3.10;;;1.07;;
8626;SDS011;4351;51.422;6.794;2023-04-01T02:29:50;2.13;;;0.80;;
8626;SDS011;4351;51.422;6.794;2023-04-01T02:32:19;4.33;;;1.10;;
8626;SDS011;4351;51.422;6.794;2023-04-01T02:34:48;2.57;;;0.87;;
8626;SDS011;4351;51.422;6.794;2023-04-01T02:37:17;3.37;;;1.20;;
8626;SDS011;4351;51.422;6.794;2023-04-01T02:39:47;5.23;;;1.30;;
8626;SDS011;4351;51.422;6.794;2023-04-01T02:42:15;7.87;;;3.10;;
8626;SDS011;4351;51.422;6.794;2023-04-01T02:44:43;6.60;;;3.00;;
8626;SDS011;4351;51.422;6.794;2023-04-01T02:47:11;4.93;;;2.60;;
8626;SDS011;4351;51.422;6.794;2023-04-01T02:49:39;4.17;;;2.00;;
8626;SDS011;4351;51.422;6.794;2023-04-01T02:52:08;4.83;;;2.00;;
8626;SDS011;4351;51.422;6.794;2023-04-01T02:54:38;4.57;;;2.53;;
8626;SDS011;4351;51.422;6.794;2023-04-01T02:57:06;4.47;;;2.20;;
8626;SDS011;4351;51.422;6.794;2023-04-01T02:59:34;3.33;;;2.20;;
8626;SDS011;4351;51.422;6.794;2023-04-01T03:02:02;6.03;;;3.53;;
8626;SDS011;4351;51.422;6.794;2023-04-01T03:04:31;6.83;;;3.87;;
8626;SDS011;4351;51.422;6.794;2023-04-01T03:06:58;7.07;;;3.97;;
8626;SDS011;4351;51.422;6.794;2023-04-01T03:09:27;4.80;;;2.90;;
8626;SDS011;4351;51.422;6.794;2023-04-01T03:11:57;6.47;;;2.40;;
8626;SDS011;4351;51.422;6.794;2023-04-01T03:14:26;3.20;;;2.00;;
8626;SDS011;4351;51.422;6.794;2023-04-01T03:16:53;4.37;;;1.80;;
8626;SDS011;4351;51.422;6.794;2023-04-01T03:19:22;2.70;;;1.50;;
8626;SDS011;4351;51.422;6.794;2023-04-01T03:21:50;3.97;;;1.50;;
8626;SDS011;4351;51.422;6.794;2023-04-01T03:24:19;3.63;;;2.23;;
8626;SDS011;4351;51.422;6.794;2023-04-01T03:26:47;5.97;;;2.70;;
8626;SDS011;4351;51.422;6.794;2023-04-01T03:29:16;6.07;;;3.40;;
8626;SDS011;4351;51.422;6.794;2023-04-01T03:31:44;7.83;;;4.90;;
8626;SDS011;4351;51.422;6.794;2023-04-01T03:34:12;9.93;;;5.17;;
8626;SDS011;4351;51.422;6.794;2023-04-01T03:36:40;7.13;;;4.40;;
8626;SDS011;4351;51.422;6.794;2023-04-01T03:39:08;6.83;;;3.90;;
8626;SDS011;4351;51.422;6.794;2023-04-01T03:41:40;5.43;;;3.40;;
8626;SDS011;4351;51.422;6.794;2023-04-01T03:44:08;6.03;;;3.40;;
8626;SDS011;4351;51.422;6.794;2023-04-01T03:46:37;6.43;;;4.50;;
8626;SDS011;4351;51.422;6.794;2023-04-01T03:49:06;6.30;;;4.30;;
8626;SDS011;4351;51.422;6.794;2023-04-01T03:51:37;7.50;;;3.83;;
8626;SDS011;4351;51.422;6.794;2023-04-01T03:54:06;6.43;;;3.50;;
8626;SDS011;4351;51.422;6.794;2023-04-01T03:56:34;6.40;;;4.10;;
8626;SDS011;4351;51.422;6.794;2023-04-01T03:59:02;4.67;;;3.77;;
8626;SDS011;4351;51.422;6.794;2023-04-01T04:01:32;4.27;;;2.27;;
8626;SDS011;4351;51.422;6.794;2023-04-01T04:04:01;3.47;;;2.10;;
8626;SDS011;4351;51.422;6.794;2023-04-01T04:06:29;4.23;;;2.53;;
8626;SDS011;4351;51.422;6.794;2023-04-01T04:08:57;4.80;;;2.70;;
8626;SDS011;4351;51.422;6.794;2023-04-01T04:11:28;3.43;;;2.00;;
8626;SDS011;4351;51.422;6.794;2023-04-01T04:13:58;5.87;;;2.40;;
8626;SDS011;4351;51.422;6.794;2023-04-01T04:16:26;4.57;;;2.60;;
8626;SDS011;4351;51.422;6.794;2023-04-01T04:19:02;3.40;;;2.07;;
8626;SDS011;4351;51.422;6.794;2023-04-01T04:21:30;5.20;;;2.60;;
8626;SDS011;4351;51.422;6.794;2023-04-01T04:23:59;3.20;;;2.00;;
8626;SDS011;4351;51.422;6.794;2023-04-01T04:26:43;3.47;;;1.90;;
8626;SDS011;4351;51.422;6.794;2023-04-01T04:29:12;3.60;;;1.87;;
8626;SDS011;4351;51.422;6.794;2023-04-01T04:31:40;2.93;;;1.90;;
8626;SDS011;4351;51.422;6.794;2023-04-01T04:34:12;2.20;;;1.83;;
8626;SDS011;4351;51.422;6.794;2023-04-01T04:36:40;4.20;;;2.37;;
8626;SDS011;4351;51.422;6.794;2023-04-01T04:39:08;3.10;;;2.37;;
8626;SDS011;4351;51.422;6.794;2023-04-01T04:41:38;3.80;;;2.67;;
8626;SDS011;4351;51.422;6.794;2023-04-01T04:44:06;5.10;;;3.20;;
8626;SDS011;4351;51.422;6.794;2023-04-01T04:46:34;4.67;;;3.33;;
8626;SDS011;4351;51.422;6.794;2023-04-01T04:49:12;6.67;;;3.30;;
8626;SDS011;4351;51.422;6.794;2023-04-01T04:51:41;4.80;;;3.70;;
8626;SDS011;4351;51.422;6.794;2023-04-01T04:54:10;5.97;;;3.50;;
8626;SDS011;4351;51.422;6.794;2023-04-01T04:56:51;5.30;;;3.20;;
8626;SDS011;4351;51.422;6.794;2023-04-01T04:59:21;4.40;;;2.90;;
8626;SDS011;4351;51.422;6.794;2023-04-01T05:02:06;7.53;;;3.80;;
8626;SDS011;4351;51.422;6.794;2023-04-01T05:04:35;7.90;;;3.93;;
8626;SDS011;4351;51.422;6.794;2023-04-01T05:07:07;6.57;;;4.37;;
8626;SDS011;4351;51.422;6.794;2023-04-01T05:09:35;8.13;;;4.70;;
8626;SDS011;4351;51.422;6.794;2023-04-01T05:12:03;6.20;;;5.13;;
8626;SDS011;4351;51.422;6.794;2023-04-01T05:14:51;6.27;;;4.80;;
8626;SDS011;4351;51.422;6.794;2023-04-01T05:17:19;10.23;;;5.73;;
8626;SDS011;4351;51.422;6.794;2023-04-01T05:19:49;7.23;;;5.73;;
8626;SDS011;4351;51.422;6.794;2023-04-01T05:22:17;7.33;;;5.17;;
8626;SDS011;4351;51.422;6.794;2023-04-01T05:24:45;9.00;;;5.27;;
8626;SDS011;4351;51.422;6.794;2023-04-01T05:27:13;7.00;;;4.67;;
8626;SDS011;4351;51.422;6.794;2023-04-01T05:29:42;5.60;;;4.57;;
8626;SDS011;4351;51.422;6.794;2023-04-01T05:32:26;7.73;;;4.80;;
8626;SDS011;4351;51.422;6.794;2023-04-01T05:34:56;9.00;;;4.63;;
8626;SDS011;4351;51.422;6.794;2023-04-01T05:37:24;7.07;;;4.90;;
8626;SDS011;4351;51.422;6.794;2023-04-01T05:39:52;7.83;;;5.40;;
8626;SDS011;4351;51.422;6.794;2023-04-01T05:42:20;8.10;;;5.57;;
8626;SDS011;4351;51.422;6.794;2023-04-01T05:44:49;8.30;;;6.20;;
8626;SDS011;4351;51.422;6.794;2023-04-01T05:47:35;7.97;;;5.73;;
8626;SDS011;4351;51.422;6.794;2023-04-01T05:50:05;8.93;;;4.90;;
8626;SDS011;4351;51.422;6.794;2023-04-01T05:52:33;6.27;;;4.70;;
8626;SDS011;4351;51.422;6.794;2023-04-01T05:55:02;6.03;;;3.97;;
8626;SDS011;4351;51.422;6.794;2023-04-01T05:57:30;5.70;;;4.37;;
8626;SDS011;4351;51.422;6.794;2023-04-01T05:59:59;5.87;;;4.63;;
8626;SDS011;4351;51.422;6.794;2023-04-01T06:02:37;6.07;;;4.73;;
8626;SDS011;4351;51.422;6.794;2023-04-01T06:05:13;5.40;;;4.30;;
8626;SDS011;4351;51.422;6.794;2023-04-01T06:07:43;4.37;;;3.67;;
8626;SDS011;4351;51.422;6.794;2023-04-01T06:10:12;3.83;;;3.40;;
8626;SDS011;4351;51.422;6.794;2023-04-01T06:12:49;5.10;;;3.60;;
8626;SDS011;4351;51.422;6.794;2023-04-01T06:15:30;4.83;;;4.10;;
8626;SDS011;4351;51.422;6.794;2023-04-01T06:18:15;4.80;;;3.60;;
8626;SDS011;4351;51.422;6.794;2023-04-01T06:21:06;3.90;;;3.50;;
8626;SDS011;4351;51.422;6.794;2023-04-01T06:23:59;4.73;;;3.80;;
8626;SDS011;4351;51.422;6.794;2023-04-01T06:26:42;4.47;;;3.67;;
8626;SDS011;4351;51.422;6.794;2023-04-01T06:32:32;6.13;;;3.30;;
8626;SDS011;4351;51.422;6.794;2023-04-01T06:35:14;3.70;;;3.30;;
8626;SDS011;4351;51.422;6.794;2023-04-01T06:37:54;4.00;;;3.50;;
8626;SDS011;4351;51.422;6.794;2023-04-01T06:40:44;5.60;;;3.87;;
8626;SDS011;4351;51.422;6.794;2023-04-01T06:43:34;6.10;;;4.13;;
8626;SDS011;4351;51.422;6.794;2023-04-01T06:46:50;4.67;;;4.00;;
8626;SDS011;4351;51.422;6.794;2023-04-01T06:49:34;4.20;;;3.37;;
8626;SDS011;4351;51.422;6.794;2023-04-01T06:52:32;5.47;;;3.80;;
8626;SDS011;4351;51.422;6.794;2023-04-01T06:55:41;3.73;;;3.33;;
8626;SDS011;4351;51.422;6.794;2023-04-01T06:58:21;4.73;;;3.33;;
8626;SDS011;4351;51.422;6.794;2023-04-01T07:00:51;5.80;;;4.10;;
8626;SDS011;4351;51.422;6.794;2023-04-01T07:03:26;4.23;;;3.60;;
8626;SDS011;4351;51.422;6.794;2023-04-01T07:06:02;6.07;;;4.43;;
8626;SDS011;4351;51.422;6.794;2023-04-01T07:08:38;4.87;;;3.93;;
8626;SDS011;4351;51.422;6.794;2023-04-01T07:11:14;6.10;;;4.20;;
8626;SDS011;4351;51.422;6.794;2023-04-01T07:14:17;5.60;;;4.20;;
8626;SDS011;4351;51.422;6.794;2023-04-01T07:16:51;6.47;;;4.80;;
8626;SDS011;4351;51.422;6.794;2023-04-01T07:19:22;6.30;;;4.67;;
8626;SDS011;4351;51.422;6.794;2023-04-01T07:22:05;5.90;;;4.93;;
8626;SDS011;4351;51.422;6.794;2023-04-01T07:25:01;6.77;;;4.70;;
8626;SDS011;4351;51.422;6.794;2023-04-01T07:27:34;5.83;;;4.50;;
8626;SDS011;4351;51.422;6.794;2023-04-01T07:30:03;6.60;;;4.77;;
8626;SDS011;4351;51.422;6.794;2023-04-01T07:32:40;5.63;;;4.37;;
8626;SDS011;4351;51.422;6.794;2023-04-01T07:35:14;5.57;;;3.93;;
8626;SDS011;4351;51.422;6.794;2023-04-01T07:37:52;4.83;;;3.23;;
8626;SDS011;4351;51.422;6.794;2023-04-01T07:40:34;4.53;;;3.83;;
8626;SDS011;4351;51.422;6.794;2023-04-01T07:43:15;4.57;;;4.07;;
8626;SDS011;4351;51.422;6.794;2023-04-01T07:46:06;5.37;;;4.40;;
8626;SDS011;4351;51.422;6.794;2023-04-01T07:48:42;4.23;;;3.83;;
8626;SDS011;4351;51.422;6.794;2023-04-01T07:51:17;3.83;;;3.40;;
8626;SDS011;4351;51.422;6.794;2023-04-01T07:53:53;4.33;;;3.40;;
8626;SDS011;4351;51.422;6.794;2023-04-01T07:56:35;4.70;;;3.40;;
8626;SDS011;4351;51.422;6.794;2023-04-01T07:59:17;4.00;;;3.23;;
8626;SDS011;4351;51.422;6.794;2023-04-01T08:01:57;4.27;;;3.47;;
8626;SDS011;4351;51.422;6.794;2023-04-01T08:04:40;4.57;;;3.80;;
8626;SDS011;4351;51.422;6.794;2023-04-01T08:07:22;4.40;;;4.00;;
8626;SDS011;4351;51.422;6.794;2023-04-01T08:10:08;4.30;;;3.90;;
8626;SDS011;4351;51.422;6.794;2023-04-01T08:13:02;5.00;;;4.20;;
8626;SDS011;4351;51.422;6.794;2023-04-01T08:16:05;5.93;;;3.97;;
8626;SDS011;4351;51.422;6.794;2023-04-01T08:18:50;4.83;;;4.07;;
8626;SDS011;4351;51.422;6.794;2023-04-01T08:21:25;4.30;;;3.90;;
8626;SDS011;4351;51.422;6.794;2023-04-01T08:24:05;4.20;;;3.70;;
8626;SDS011;4351;51.422;6.794;2023-04-01T08:26:39;4.67;;;3.53;;
8626;SDS011;4351;51.422;6.794;2023-04-01T08:29:13;3.67;;;3.20;;
8626;SDS011;4351;51.422;6.794;2023-04-01T08:31:48;5.47;;;3.73;;
8626;SDS011;4351;51.422;6.794;2023-04-01T08:34:20;4.03;;;3.63;;
8626;SDS011;4351;51.422;6.794;2023-04-01T08:36:57;5.63;;;3.47;;
8626;SDS011;4351;51.422;6.794;2023-04-01T08:39:29;4.33;;;3.50;;
8626;SDS011;4351;51.422;6.794;2023-04-01T08:42:05;3.70;;;3.40;;
8626;SDS011;4351;51.422;6.794;2023-04-01T08:45:10;3.67;;;3.20;;
8626;SDS011;4351;51.422;6.794;2023-04-01T08:54:29;5.60;;;3.50;;
8626;SDS011;4351;51.422;6.794;2023-04-01T08:57:26;4.07;;;3.67;;
8626;SDS011;4351;51.422;6.794;2023-04-01T09:00:25;4.97;;;4.30;;
8626;SDS011;4351;51.422;6.794;2023-04-01T09:03:27;4.93;;;3.83;;
8626;SDS011;4351;51.422;6.794;2023-04-01T09:06:25;4.97;;;4.20;;
8626;SDS011;4351;51.422;6.794;2023-04-01T09:09:09;6.17;;;4.07;;
8626;SDS011;4351;51.422;6.794;2023-04-01T09:15:15;4.90;;;4.37;;
8626;SDS011;4351;51.422;6.794;2023-04-01T09:18:16;7.57;;;4.93;;
8626;SDS011;4351;51.422;6.794;2023-04-01T09:21:05;8.03;;;5.43;;
8626;SDS011;4351;51.422;6.794;2023-04-01T09:23:51;7.70;;;5.10;;
8626;SDS011;4351;51.422;6.794;2023-04-01T09:26:43;7.37;;;5.27;;
8626;SDS011;4351;51.422;6.794;2023-04-01T09:29:30;7.77;;;5.83;;
8626;SDS011;4351;51.422;6.794;2023-04-01T09:32:22;7.63;;;6.07;;
8626;SDS011;4351;51.422;6.794;2023-04-01T09:35:20;8.83;;;6.17;;
8626;SDS011;4351;51.422;6.794;2023-04-01T09:38:00;8.90;;;6.17;;
8626;SDS011;4351;51.422;6.794;2023-04-01T09:40:42;10.13;;;6.47;;
8626;SDS011;4351;51.422;6.794;2023-04-01T09:43:27;8.50;;;6.53;;
8626;SDS011;4351;51.422;6.794;2023-04-01T09:49:03;8.63;;;6.47;;
8626;SDS011;4351;51.422;6.794;2023-04-01T09:51:48;9.03;;;5.93;;
8626;SDS011;4351;51.422;6.794;2023-04-01T09:54:37;9.47;;;7.20;;
8626;SDS011;4351;51.422;6.794;2023-04-01T09:57:38;10.13;;;7.40;;
8626;SDS011;4351;51.422;6.794;2023-04-01T10:01:00;10.77;;;8.03;;
8626;SDS011;4351;51.422;6.794;2023-04-01T10:06:58;8.07;;;7.10;;
8626;SDS011;4351;51.422;6.794;2023-04-01T10:09:57;10.97;;;8.53;;
8626;SDS011;4351;51.422;6.794;2023-04-01T10:12:52;10.80;;;8.20;;
8626;SDS011;4351;51.422;6.794;2023-04-01T10:15:41;11.93;;;8.73;;
8626;SDS011;4351;51.422;6.794;2023-04-01T10:21:40;10.10;;;7.73;;
8626;SDS011;4351;51.422;6.794;2023-04-01T10:27:22;10.73;;;8.13;;
8626;SDS011;4351;51.422;6.794;2023-04-01T10:33:49;11.77;;;8.00;;
8626;SDS011;4351;51.422;6.794;2023-04-01T10:36:43;10.53;;;7.87;;
8626;SDS011;4351;51.422;6.794;2023-04-01T10:39:31;11.23;;;7.77;;
8626;SDS011;4351;51.422;6.794;2023-04-01T10:46:16;10.83;;;8.00;;
8626;SDS011;4351;51.422;6.794;2023-04-01T10:49:28;12.57;;;8.77;;
8626;SDS011;4351;51.422;6.794;2023-04-01T10:56:07;12.40;;;8.90;;
8626;SDS011;4351;51.422;6.794;2023-04-01T10:59:23;11.33;;;8.53;;
8626;SDS011;4351;51.422;6.794;2023-04-01T11:06:30;13.57;;;9.20;;
8626;SDS011;4351;51.422;6.794;2023-04-01T11:12:31;14.73;;;9.33;;
8626;SDS011;4351;51.422;6.794;2023-04-01T11:21:50;13.30;;;9.67;;
8626;SDS011;4351;51.422;6.794;2023-04-01T11:24:53;14.03;;;9.43;;
8626;SDS011;4351;51.422;6.794;2023-04-01T11:27:51;12.70;;;9.90;;
8626;SDS011;4351;51.422;6.794;2023-04-01T11:30:49;16.63;;;10.23;;
8626;SDS011;4351;51.422;6.794;2023-04-01T11:33:29;12.17;;;9.27;;
8626;SDS011;4351;51.422;6.794;2023-04-01T11:38:57;15.50;;;10.27;;
8626;SDS011;4351;51.422;6.794;2023-04-01T11:42:02;14.40;;;10.07;;
8626;SDS011;4351;51.422;6.794;2023-04-01T11:45:07;14.13;;;11.13;;
8626;SDS011;4351;51.422;6.794;2023-04-01T11:50:49;15.00;;;11.10;;
8626;SDS011;4351;51.422;6.794;2023-04-01T11:53:31;11.40;;;10.10;;
8626;SDS011;4351;51.422;6.794;2023-04-01T11:56:10;12.23;;;9.67;;
8626;SDS011;4351;51.422;6.794;2023-04-01T11:59:13;11.77;;;9.27;;
8626;SDS011;4351;51.422;6.794;2023-04-01T12:02:11;11.30;;;9.37;;
8626;SDS011;4351;51.422;6.794;2023-04-01T12:04:57;10.00;;;8.30;;
8626;SDS011;4351;51.422;6.794;2023-04-01T12:07:45;13.53;;;9.57;;
8626;SDS011;4351;51.422;6.794;2023-04-01T12:10:25;10.57;;;8.30;;
8626;SDS011;4351;51.422;6.794;2023-04-01T12:13:02;10.33;;;7.80;;
8626;SDS011;4351;51.422;6.794;2023-04-01T12:15:43;9.83;;;7.40;;
8626;SDS011;4351;51.422;6.794;2023-04-01T12:18:23;9.27;;;7.67;;
8626;SDS011;4351;51.422;6.794;2023-04-01T12:21:05;10.13;;;6.63;;
8626;SDS011;4351;51.422;6.794;2023-04-01T12:23:52;8.50;;;6.93;;
8626;SDS011;4351;51.422;6.794;2023-04-01T12:26:52;7.95;;;6.53;;
8626;SDS011;4351;51.422;6.794;2023-04-01T12:29:43;8.03;;;6.00;;
8626;SDS011;4351;51.422;6.794;2023-04-01T12:32:24;8.90;;;6.40;;
8626;SDS011;4351;51.422;6.794;2023-04-01T12:35:02;7.83;;;6.40;;
8626;SDS011;4351;51.422;6.794;2023-04-01T12:37:50;7.43;;;6.47;;
8626;SDS011;4351;51.422;6.794;2023-04-01T12:40:37;8.97;;;7.10;;
8626;SDS011;4351;51.422;6.794;2023-04-01T12:43:32;10.17;;;7.33;;
8626;SDS011;4351;51.422;6.794;2023-04-01T12:46:18;10.00;;;7.80;;
8626;SDS011;4351;51.422;6.794;2023-04-01T12:49:10;8.23;;;6.90;;
8626;SDS011;4351;51.422;6.794;2023-04-01T12:52:04;10.10;;;7.50;;
8626;SDS011;4351;51.422;6.794;2023-04-01T12:57:46;10.07;;;7.40;;
8626;SDS011;4351;51.422;6.794;2023-04-01T13:00:46;9.73;;;7.23;;
8626;SDS011;4351;51.422;6.794;2023-04-01T13:03:31;9.93;;;7.80;;
8626;SDS011;4351;51.422;6.794;2023-04-01T13:06:32;12.03;;;7.53;;
8626;SDS011;4351;51.422;6.794;2023-04-01T13:09:17;9.97;;;7.20;;
8626;SDS011;4351;51.422;6.794;2023-04-01T13:12:02;8.73;;;6.80;;
8626;SDS011;4351;51.422;6.794;2023-04-01T13:14:50;11.10;;;7.53;;
8626;SDS011;4351;51.422;6.794;2023-04-01T13:17:33;9.17;;;7.00;;
8626;SDS011;4351;51.422;6.794;2023-04-01T13:20:12;9.67;;;7.17;;
8626;SDS011;4351;51.422;6.794;2023-04-01T13:22:50;10.53;;;7.40;;
8626;SDS011;4351;51.422;6.794;2023-04-01T13:25:27;9.30;;;6.53;;
8626;SDS011;4351;51.422;6.794;2023-04-01T13:28:06;10.40;;;7.03;;
8626;SDS011;4351;51.422;6.794;2023-04-01T13:30:43;10.87;;;6.93;;
8626;SDS011;4351;51.422;6.794;2023-04-01T13:33:17;8.43;;;6.40;;
8626;SDS011;4351;51.422;6.794;2023-04-01T13:35:57;8.30;;;6.10;;
8626;SDS011;4351;51.422;6.794;2023-04-01T13:42:31;8.13;;;6.27;;
8626;SDS011;4351;51.422;6.794;2023-04-01T13:45:11;9.20;;;6.67;;
8626;SDS011;4351;51.422;6.794;2023-04-01T13:47:55;8.80;;;6.70;;
8626;SDS011;4351;51.422;6.794;2023-04-01T13:50:44;9.77;;;6.73;;
8626;SDS011;4351;51.422;6.794;2023-04-01T13:56:29;8.07;;;7.07;;
8626;SDS011;4351;51.422;6.794;2023-04-01T13:59:08;13.83;;;10.10;;
8626;SDS011;4351;51.422;6.794;2023-04-01T14:01:52;8.80;;;7.03;;
8626;SDS011;4351;51.422;6.794;2023-04-01T14:04:30;10.57;;;7.57;;
8626;SDS011;4351;51.422;6.794;2023-04-01T14:07:18;10.33;;;7.07;;
8626;SDS011;4351;51.422;6.794;2023-04-01T14:10:13;8.90;;;6.90;;
8626;SDS011;4351;51.422;6.794;2023-04-01T14:12:52;9.77;;;6.97;;
8626;SDS011;4351;51.422;6.794;2023-04-01T14:15:35;8.23;;;6.47;;
8626;SDS011;4351;51.422;6.794;2023-04-01T14:18:15;9.17;;;7.13;;
8626;SDS011;4351;51.422;6.794;2023-04-01T14:20:53;9.40;;;7.00;;
8626;SDS011;4351;51.422;6.794;2023-04-01T14:23:38;9.17;;;6.73;;
8626;SDS011;4351;51.422;6.794;2023-04-01T14:26:34;7.50;;;6.20;;
8626;SDS011;4351;51.422;6.794;2023-04-01T14:29:24;8.23;;;5.90;;
8626;SDS011;4351;51.422;6.794;2023-04-01T14:32:04;7.77;;;6.10;;
8626;SDS011;4351;51.422;6.794;2023-04-01T14:34:53;9.07;;;6.47;;
8626;SDS011;4351;51.422;6.794;2023-04-01T14:37:38;8.47;;;6.13;;
8626;SDS011;4351;51.422;6.794;2023-04-01T14:40:26;11.60;;;7.80;;
8626;SDS011;4351;51.422;6.794;2023-04-01T14:43:10;8.50;;;6.13;;
8626;SDS011;4351;51.422;6.794;2023-04-01T14:45:59;6.63;;;5.57;;
8626;SDS011;4351;51.422;6.794;2023-04-01T14:48:49;7.97;;;6.27;;
8626;SDS011;4351;51.422;6.794;2023-04-01T14:51:20;8.23;;;5.80;;
8626;SDS011;4351;51.422;6.794;2023-04-01T14:53:58;7.83;;;5.93;;
8626;SDS011;4351;51.422;6.794;2023-04-01T14:56:38;7.30;;;5.70;;
8626;SDS011;4351;51.422;6.794;2023-04-01T14:59:13;7.20;;;5.67;;
8626;SDS011;4351;51.422;6.794;2023-04-01T15:01:46;6.60;;;5.57;;
8626;SDS011;4351;51.422;6.794;2023-04-01T15:04:23;6.17;;;5.40;;
8626;SDS011;4351;51.422;6.794;2023-04-01T15:07:24;7.17;;;6.07;;
8626;SDS011;4351;51.422;6.794;2023-04-01T15:10:09;6.90;;;5.37;;
8626;SDS011;4351;51.422;6.794;2023-04-01T15:12:49;7.07;;;5.00;;
8626;SDS011;4351;51.422;6.794;2023-04-01T15:15:29;8.20;;;5.30;;
8626;SDS011;4351;51.422;6.794;2023-04-01T15:18:08;5.93;;;5.00;;
8626;SDS011;4351;51.422;6.794;2023-04-01T15:20:43;7.30;;;5.47;;
8626;SDS011;4351;51.422;6.794;2023-04-01T15:23:33;6.53;;;4.70;;
8626;SDS011;4351;51.422;6.794;2023-04-01T15:26:13;6.33;;;5.20;;
8626;SDS011;4351;51.422;6.794;2023-04-01T15:28:57;5.90;;;4.70;;
8626;SDS011;4351;51.422;6.794;2023-04-01T15:31:42;5.60;;;4.60;;
8626;SDS011;4351;51.422;6.794;2023-04-01T15:34:17;5.33;;;4.60;;
8626;SDS011;4351;51.422;6.794;2023-04-01T15:36:53;5.73;;;4.30;;
8626;SDS011;4351;51.422;6.794;2023-04-01T15:39:31;5.70;;;3.87;;
8626;SDS011;4351;51.422;6.794;2023-04-01T15:42:20;4.10;;;3.70;;
8626;SDS011;4351;51.422;6.794;2023-04-01T15:44:58;3.90;;;3.50;;
8626;SDS011;4351;51.422;6.794;2023-04-01T15:47:35;4.60;;;3.63;;
8626;SDS011;4351;51.422;6.794;2023-04-01T15:53:30;5.30;;;4.80;;
8626;SDS011;4351;51.422;6.794;2023-04-01T15:56:18;5.60;;;4.40;;
8626;SDS011;4351;51.422;6.794;2023-04-01T15:58:56;5.03;;;4.10;;
8626;SDS011;4351;51.422;6.794;2023-04-01T16:01:35;4.50;;;3.83;;
8626;SDS011;4351;51.422;6.794;2023-04-01T16:04:21;5.10;;;4.00;;
8626;SDS011;4351;51.422;6.794;2023-04-01T16:07:09;5.20;;;4.03;;
8626;SDS011;4351;51.422;6.794;2023-04-01T16:12:44;6.37;;;4.77;;
8626;SDS011;4351;51.422;6.794;2023-04-01T16:15:24;4.13;;;3.70;;
8626;SDS011;4351;51.422;6.794;2023-04-01T16:18:07;4.90;;;4.10;;
8626;SDS011;4351;51.422;6.794;2023-04-01T16:20:54;5.20;;;3.97;;
8626;SDS011;4351;51.422;6.794;2023-04-01T16:23:29;5.03;;;4.03;;
8626;SDS011;4351;51.422;6.794;2023-04-01T16:26:06;4.70;;;3.90;;
8626;SDS011;4351;51.422;6.794;2023-04-01T16:28:39;5.53;;;3.93;;
8626;SDS011;4351;51.422;6.794;2023-04-01T16:31:16;5.03;;;3.73;;
8626;SDS011;4351;51.422;6.794;2023-04-01T16:33:58;4.50;;;3.60;;
8626;SDS011;4351;51.422;6.794;2023-04-01T16:36:33;5.17;;;4.07;;
8626;SDS011;4351;51.422;6.794;2023-04-01T16:39:09;5.00;;;4.10;;
8626;SDS011;4351;51.422;6.794;2023-04-01T16:41:48;5.97;;;4.13;;
8626;SDS011;4351;51.422;6.794;2023-04-01T16:44:19;7.13;;;5.00;;
8626;SDS011;4351;51.422;6.794;2023-04-01T16:46:50;6.67;;;5.13;;
8626;SDS011;4351;51.422;6.794;2023-04-01T16:49:24;6.50;;;5.00;;
8626;SDS011;4351;51.422;6.794;2023-04-01T16:52:00;8.47;;;5.87;;
8626;SDS011;4351;51.422;6.794;2023-04-01T16:54:41;6.90;;;5.53;;
8626;SDS011;4351;51.422;6.794;2023-04-01T16:57:18;7.80;;;6.07;;
8626;SDS011;4351;51.422;6.794;2023-04-01T16:59:55;6.70;;;6.00;;
8626;SDS011;4351;51.422;6.794;2023-04-01T17:02:31;7.00;;;5.93;;
8626;SDS011;4351;51.422;6.794;2023-04-01T17:05:04;8.03;;;6.10;;
8626;SDS011;4351;51.422;6.794;2023-04-01T17:07:38;7.03;;;5.67;;
8626;SDS011;4351;51.422;6.794;2023-04-01T17:10:22;6.73;;;5.60;;
8626;SDS011;4351;51.422;6.794;2023-04-01T17:13:16;9.17;;;6.40;;
8626;SDS011;4351;51.422;6.794;2023-04-01T17:16:00;7.90;;;6.67;;
8626;SDS011;4351;51.422;6.794;2023-04-01T17:18:36;7.90;;;6.57;;
8626;SDS011;4351;51.422;6.794;2023-04-01T17:21:14;8.23;;;6.30;;
8626;SDS011;4351;51.422;6.794;2023-04-01T17:23:49;10.67;;;7.30;;
8626;SDS011;4351;51.422;6.794;2023-04-01T17:26:25;7.57;;;6.60;;
8626;SDS011;4351;51.422;6.794;2023-04-01T17:29:03;8.20;;;6.63;;
8626;SDS011;4351;51.422;6.794;2023-04-01T17:31:43;9.80;;;7.37;;
8626;SDS011;4351;51.422;6.794;2023-04-01T17:34:21;9.43;;;7.70;;
8626;SDS011;4351;51.422;6.794;2023-04-01T17:37:08;8.57;;;7.27;;
8626;SDS011;4351;51.422;6.794;2023-04-01T17:39:54;8.50;;;7.10;;